Time;durP1;ratioP1;P1;durP2;ratioP2;P2;SDS_P1;SDS_P2;PMS_P1;PMS_P2;Temp;Humidity;BMP_temperature;BMP_pressure;BME280_temperature;BME280_humidity;BME280_pressure;Samples;Min_cycle;Max_cycle;Signal;HPM_P1;HPM_P2
2021/09/17 00:00:39;;;;;;;1.23;0.88;;;23.10;54.00;;;26.97;36.10;101105.53;5113320;28;20059;-11
2021/09/17 00:03:04;;;;;;;1.38;0.80;;;23.10;54.10;;;27.00;36.47;101099.06;5113357;28;20052;-11
2021/09/17 00:05:30;;;;;;;0.82;0.70;;;23.10;54.00;;;26.97;36.36;101102.84;5113281;28;20058;-11
2021/09/17 00:07:56;;;;;;;1.67;0.68;;;23.10;54.00;;;27.01;36.30;101111.47;5113189;28;20043;-11
2021/09/17 00:10:22;;;;;;;1.05;0.95;;;23.10;53.90;;;27.01;36.31;101103.41;5093064;28;20052;-11
2021/09/17 00:12:49;;;;;;;1.13;0.98;;;23.10;53.90;;;27.01;36.28;101105.25;5113205;28;20048;-11
2021/09/17 00:15:15;;;;;;;1.05;0.80;;;23.10;53.90;;;26.97;36.41;101100.16;5113419;28;20479;-11
2021/09/17 00:17:44;;;;;;;0.85;0.77;;;23.10;54.00;;;26.99;36.32;101098.19;5113104;28;20051;-11
2021/09/17 00:20:12;;;;;;;0.73;0.73;;;23.00;54.10;;;26.98;36.36;101101.00;5112963;28;20056;-11
2021/09/17 00:22:39;;;;;;;1.73;1.00;;;23.00;54.10;;;26.99;36.15;101097.34;5113115;28;20075;-11
2021/09/17 00:25:07;;;;;;;1.10;0.80;;;23.00;54.00;;;26.96;36.25;101093.09;5113243;28;20055;-11
2021/09/17 00:27:33;;;;;;;1.48;0.90;;;23.10;54.10;;;26.97;36.25;101094.78;5113012;28;20073;-11
2021/09/17 00:29:59;;;;;;;2.05;0.93;;;23.00;54.10;;;26.98;36.31;101092.94;5115614;28;20048;-11
2021/09/17 00:32:25;;;;;;;1.25;0.73;;;23.00;54.10;;;26.97;36.43;101094.78;5116902;28;20130;-11
2021/09/17 00:34:50;;;;;;;0.80;0.80;;;23.00;54.00;;;26.95;36.25;101087.84;5116595;28;20050;-11
2021/09/17 00:37:16;;;;;;;1.23;0.80;;;23.00;54.10;;;26.97;36.25;101092.09;5116558;28;20048;-11
2021/09/17 00:39:42;;;;;;;1.23;1.00;;;23.00;54.10;;;26.94;36.45;101081.63;5116399;28;20048;-11
2021/09/17 00:42:08;;;;;;;1.38;0.93;;;23.00;54.10;;;26.97;36.23;101096.63;5116473;28;20055;-11
2021/09/17 00:44:33;;;;;;;1.38;0.77;;;23.00;54.10;;;26.96;36.29;101095.78;5116743;28;20055;-11
2021/09/17 00:46:59;;;;;;;1.73;0.80;;;23.00;54.10;;;26.97;36.02;101099.31;5116382;28;20051;-11
2021/09/17 00:49:25;;;;;;;1.15;0.70;;;23.10;54.10;;;26.96;36.37;101092.22;5116230;28;20048;-11
2021/09/17 00:51:52;;;;;;;1.38;0.90;;;23.00;54.00;;;26.97;36.32;101091.25;5116946;28;20055;-11
2021/09/17 00:54:18;;;;;;;0.93;0.90;;;23.00;54.00;;;26.97;36.09;101093.94;5097930;28;20112;-11
2021/09/17 00:56:45;;;;;;;1.52;1.02;;;23.00;54.10;;;26.96;36.49;101087.72;5116771;28;20448;-11
2021/09/17 00:59:11;;;;;;;1.88;0.80;;;23.00;54.10;;;26.95;36.32;101093.22;5116210;28;20050;-11
2021/09/17 01:01:39;;;;;;;1.70;0.70;;;23.00;54.60;;;26.95;36.32;101091.38;5116494;28;20403;-11
2021/09/17 01:04:05;;;;;;;1.27;0.80;;;23.00;54.00;;;26.94;36.34;101091.50;5116589;28;20055;-11
2021/09/17 01:06:32;;;;;;;1.33;1.00;;;23.00;54.00;;;26.95;36.19;101094.06;5116356;28;20044;-12
2021/09/17 01:08:58;;;;;;;2.13;1.00;;;23.00;54.00;;;26.94;36.31;101086.97;5116075;28;20441;-11
2021/09/17 01:11:24;;;;;;;1.73;1.00;;;23.00;54.00;;;26.97;36.28;101091.25;5097435;28;20506;-11
2021/09/17 01:13:51;;;;;;;1.95;0.90;;;23.00;54.10;;;26.95;36.30;101094.06;5115919;28;20047;-11
2021/09/17 01:16:18;;;;;;;1.60;0.88;;;23.00;54.00;;;26.96;36.25;101093.09;5097672;28;20399;-11
2021/09/17 01:18:45;;;;;;;1.92;0.80;;;23.00;54.00;;;26.95;36.37;101096.75;5115694;28;20036;-11
2021/09/17 01:21:14;;;;;;;0.70;0.70;;;23.00;54.00;;;26.96;36.38;101085.06;5115671;28;20055;-11
2021/09/17 01:23:40;;;;;;;1.02;0.90;;;23.00;54.00;;;26.93;36.31;101085.31;5116117;28;20048;-11
2021/09/17 01:26:05;;;;;;;1.65;1.02;;;23.00;54.10;;;26.94;36.28;101086.97;5116018;28;20054;-11
2021/09/17 01:28:33;;;;;;;1.38;0.80;;;23.00;54.20;;;26.94;36.31;101080.78;5115420;28;20071;-11
2021/09/17 01:31:00;;;;;;;1.20;0.70;;;23.00;54.20;;;26.94;36.39;101078.09;5115296;28;20066;-11
2021/09/17 01:33:26;;;;;;;0.80;0.70;;;23.00;54.20;;;26.94;36.26;101078.94;5115306;28;20056;-11
2021/09/17 01:36:02;;;;;;;1.13;0.80;;;23.00;54.20;;;26.94;36.46;101078.09;5115430;28;20047;-11
2021/09/17 01:38:30;;;;;;;0.70;0.70;;;23.00;54.10;;;26.94;36.32;101070.03;5115840;28;20055;-11
2021/09/17 01:40:55;;;;;;;1.90;0.93;;;23.00;54.00;;;26.93;36.33;101071.00;5115016;28;20182;-11
2021/09/17 01:43:22;;;;;;;1.58;0.60;;;23.00;54.10;;;26.94;36.13;101075.41;5115251;28;20130;-11
2021/09/17 01:45:48;;;;;;;0.63;0.60;;;23.00;54.10;;;26.94;36.24;101078.09;5115212;28;20047;-11
2021/09/17 01:48:13;;;;;;;2.67;0.85;;;23.00;54.70;;;26.94;36.34;101073.56;5115531;28;20035;-11
2021/09/17 01:50:39;;;;;;;1.98;0.93;;;23.00;54.10;;;26.92;36.19;101072.84;5115523;28;20050;-11
2021/09/17 01:53:05;;;;;;;1.15;0.70;;;23.00;54.10;;;26.94;36.39;101076.25;5115436;28;20138;-11
2021/09/17 01:55:31;;;;;;;0.95;0.70;;;23.00;54.10;;;26.94;36.36;101080.78;5115799;28;20128;-11
2021/09/17 01:57:57;;;;;;;1.73;0.82;;;23.00;54.00;;;26.95;36.42;101075.28;5115094;28;20055;-14
2021/09/17 02:00:23;;;;;;;1.25;0.80;;;23.00;54.00;;;26.94;36.15;101075.41;5115457;28;20589;-11
2021/09/17 02:02:50;;;;;;;2.28;0.95;;;23.00;54.00;;;26.92;36.29;101078.22;5115145;28;20047;-11
2021/09/17 02:05:17;;;;;;;1.02;0.80;;;23.00;54.10;;;26.94;36.24;101078.09;5115123;28;20372;-11
2021/09/17 02:07:43;;;;;;;1.02;0.80;;;23.00;54.10;;;26.93;36.54;101077.25;5115578;28;20101;-11
2021/09/17 02:10:10;;;;;;;0.95;0.65;;;23.00;54.10;;;26.92;36.45;101070.16;5114972;28;20048;-11
2021/09/17 02:12:36;;;;;;;1.00;0.90;;;23.00;54.10;;;26.92;36.47;101078.22;5115365;28;20052;-11
2021/09/17 02:15:05;;;;;;;0.98;0.70;;;23.00;54.10;;;26.91;36.41;101070.31;5114965;28;20039;-11
2021/09/17 02:17:31;;;;;;;2.53;0.85;;;23.00;54.10;;;26.91;36.13;101062.25;5114641;28;20087;-11
2021/09/17 02:19:57;;;;;;;1.08;0.70;;;23.00;54.10;;;26.93;36.13;101069.19;5114799;28;20501;-11
2021/09/17 02:22:24;;;;;;;0.90;0.80;;;23.00;54.10;;;26.92;36.26;101072.84;5114882;28;20043;-11
2021/09/17 02:24:50;;;;;;;1.25;0.70;;;23.00;54.00;;;26.92;36.52;101072.00;5114875;28;20050;-11
2021/09/17 02:27:16;;;;;;;1.00;0.80;;;23.00;54.00;;;26.92;36.31;101066.66;5114861;28;20048;-11
2021/09/17 02:29:42;;;;;;;1.30;0.80;;;23.00;54.10;;;26.93;36.36;101077.25;5115259;28;20054;-11
2021/09/17 02:32:09;;;;;;;1.02;0.85;;;23.00;54.00;;;26.91;36.24;101075.66;5114795;28;20055;-11
2021/09/17 02:34:35;;;;;;;0.82;0.70;;;23.00;54.10;;;26.90;36.41;101069.47;5114750;28;20043;-11
2021/09/17 02:37:00;;;;;;;0.93;0.65;;;23.00;54.20;;;26.93;36.54;101074.56;5114679;28;20047;-11
2021/09/17 02:39:26;;;;;;;1.52;1.10;;;22.90;54.20;;;26.92;36.34;101066.66;5114571;28;20048;-11
2021/09/17 02:41:52;;;;;;;1.15;0.77;;;23.00;54.20;;;26.92;36.24;101069.34;5114620;28;20395;-11
2021/09/17 02:44:18;;;;;;;1.30;0.90;;;22.90;54.20;;;26.92;36.34;101067.50;5114517;28;20058;-11
2021/09/17 02:46:44;;;;;;;0.70;0.70;;;22.90;54.20;;;26.92;36.47;101069.34;5114439;28;20059;-11
2021/09/17 02:49:09;;;;;;;1.25;0.80;;;22.90;54.20;;;26.91;36.35;101070.31;5114345;28;20092;-11
2021/09/17 02:51:35;;;;;;;1.13;0.70;;;23.00;54.10;;;26.91;36.37;101071.13;5113729;28;20062;-11
2021/09/17 02:54:01;;;;;;;1.30;0.90;;;23.00;54.10;;;26.92;36.31;101066.66;5114388;28;20138;-11
2021/09/17 02:56:27;;;;;;;1.30;1.10;;;22.90;54.10;;;26.89;36.26;101059.69;5114628;28;20047;-11
2021/09/17 02:58:53;;;;;;;1.45;0.77;;;23.00;54.10;;;26.92;36.29;101066.66;5114821;28;20054;-11
2021/09/17 03:01:19;;;;;;;1.33;0.90;;;23.00;54.20;;;26.90;36.54;101065.94;5114575;28;20044;-11
2021/09/17 03:03:46;;;;;;;1.48;0.90;;;23.00;54.20;;;26.91;36.38;101067.63;5114331;28;20071;-12
2021/09/17 03:06:12;;;;;;;1.00;0.70;;;23.00;54.20;;;26.92;36.33;101066.66;5114657;28;20043;-11
2021/09/17 03:08:38;;;;;;;1.05;0.70;;;23.00;54.20;;;26.91;36.31;101065.78;5095630;28;20550;-11
2021/09/17 03:11:03;;;;;;;2.72;0.85;;;22.90;54.20;;;26.89;36.28;101066.91;5113557;28;20043;-11
2021/09/17 03:13:29;;;;;;;1.02;0.60;;;22.90;54.10;;;26.92;36.12;101072.00;5113866;28;20047;-11
2021/09/17 03:15:55;;;;;;;0.80;0.65;;;23.00;54.20;;;26.91;36.40;101070.31;5113730;28;20098;-11
2021/09/17 03:18:21;;;;;;;1.95;1.00;;;22.90;54.10;;;26.91;36.21;101065.78;5113749;28;20071;-11
2021/09/17 03:20:49;;;;;;;1.10;0.85;;;22.90;54.10;;;26.91;36.42;101065.78;5113801;28;20047;-11
2021/09/17 03:23:15;;;;;;;1.40;0.80;;;22.90;54.10;;;26.91;36.36;101064.94;5114220;28;20173;-11
2021/09/17 03:25:41;;;;;;;1.17;0.77;;;22.90;54.20;;;26.91;36.34;101068.47;5114495;28;20047;-11
2021/09/17 03:28:07;;;;;;;1.27;0.68;;;22.90;54.20;;;26.91;36.48;101070.31;5113895;28;20047;-11
2021/09/17 03:30:33;;;;;;;0.73;0.70;;;22.90;54.20;;;26.89;36.24;101075.78;5113576;28;20048;-11
2021/09/17 03:32:59;;;;;;;1.25;0.80;;;22.90;54.10;;;26.90;36.35;101074.81;5114060;28;20047;-11
2021/09/17 03:35:24;;;;;;;0.73;0.60;;;22.90;54.10;;;26.89;36.33;101069.59;5113824;28;20046;-11
2021/09/17 03:37:51;;;;;;;0.75;0.47;;;22.90;54.20;;;26.90;36.46;101076.66;5113644;28;20047;-11
2021/09/17 03:40:17;;;;;;;0.55;0.50;;;22.90;54.20;;;26.91;36.31;101086.41;5114106;28;20098;-11
2021/09/17 03:42:43;;;;;;;1.05;0.70;;;22.90;54.00;;;26.89;36.24;101077.63;5113931;28;20050;-11
2021/09/17 03:45:10;;;;;;;1.80;0.75;;;23.00;54.00;;;26.90;36.33;101073.97;5095928;28;20460;-11
2021/09/17 03:47:35;;;;;;;1.40;0.70;;;22.90;54.00;;;26.86;36.40;101067.16;5113532;28;20075;-11
2021/09/17 03:50:02;;;;;;;0.77;0.70;;;22.90;54.10;;;26.88;36.39;101074.09;5113667;28;20082;-11
2021/09/17 03:52:28;;;;;;;1.00;0.90;;;22.90;54.10;;;26.88;36.44;101065.19;5095055;28;20459;-11
2021/09/17 03:54:54;;;;;;;0.88;0.70;;;22.90;54.10;;;26.89;36.36;101061.53;5095237;28;20054;-11
2021/09/17 03:57:19;;;;;;;1.10;0.70;;;23.00;54.10;;;26.90;36.31;101061.41;5113471;28;20053;-11
2021/09/17 03:59:45;;;;;;;1.98;0.80;;;22.90;54.10;;;26.88;36.36;101063.38;5113182;28;20047;-11
2021/09/17 04:02:11;;;;;;;0.60;0.55;;;22.90;54.20;;;26.91;36.37;101067.63;5113415;28;20051;-11
2021/09/17 04:04:39;;;;;;;0.90;0.68;;;22.90;54.10;;;26.90;36.16;101068.63;5112440;28;20052;-11
2021/09/17 04:07:06;;;;;;;0.80;0.60;;;22.90;54.10;;;26.89;36.12;101061.53;5113621;28;20048;-11
2021/09/17 04:09:32;;;;;;;1.02;0.70;;;22.90;54.10;;;26.87;36.28;101058.97;5113104;28;20056;-11
2021/09/17 04:11:57;;;;;;;0.85;0.70;;;22.90;54.10;;;26.90;36.32;101072.13;5113291;28;20065;-11
2021/09/17 04:14:23;;;;;;;0.73;0.70;;;22.90;54.70;;;26.87;36.50;101069.72;5113428;28;20054;-11
2021/09/17 04:16:49;;;;;;;0.98;0.70;;;22.90;54.20;;;26.87;36.41;101072.38;5113206;28;20403;-11
2021/09/17 04:19:15;;;;;;;0.60;0.60;;;22.90;54.10;;;26.89;36.13;101074.94;5112758;28;20101;-11
2021/09/17 04:21:41;;;;;;;0.50;0.50;;;22.90;54.00;;;26.87;36.19;101079.59;5094904;28;20466;-11
2021/09/17 04:24:06;;;;;;;0.70;0.70;;;22.90;54.10;;;26.87;36.37;101080.44;5113647;28;20060;-11
2021/09/17 04:26:32;;;;;;;0.77;0.50;;;22.90;54.00;;;26.87;36.29;101080.44;5113033;28;20039;-11
2021/09/17 04:28:58;;;;;;;1.40;0.60;;;22.90;54.00;;;26.87;36.28;101085.81;5113044;28;20043;-11
2021/09/17 04:31:24;;;;;;;0.60;0.45;;;22.90;54.00;;;26.89;36.34;101083.00;5113177;28;20048;-11
2021/09/17 04:33:50;;;;;;;0.77;0.60;;;22.90;54.10;;;26.86;36.51;101080.56;5112889;28;20051;-11
2021/09/17 04:36:16;;;;;;;0.70;0.70;;;22.90;54.20;;;26.86;36.26;101080.56;5111576;28;20426;-11
2021/09/17 04:38:45;;;;;;;0.82;0.60;;;22.90;54.20;;;26.88;36.30;101086.66;5112869;28;20047;-11
2021/09/17 04:41:10;;;;;;;1.10;0.57;;;22.90;54.20;;;26.87;36.49;101083.13;5112886;28;20389;-11
2021/09/17 04:43:36;;;;;;;0.95;0.60;;;22.90;54.30;;;26.89;36.24;101088.38;5112545;28;20176;-11
2021/09/17 04:46:02;;;;;;;1.00;0.77;;;22.90;54.20;;;26.85;36.28;101078.84;5112684;28;20043;-11
2021/09/17 04:48:28;;;;;;;1.08;0.70;;;22.90;54.20;;;26.85;36.13;101086.91;5112648;28;20138;-11
2021/09/17 04:50:53;;;;;;;0.52;0.40;;;22.90;54.20;;;26.88;36.19;101097.38;5112536;28;20403;-11
2021/09/17 04:53:19;;;;;;;0.70;0.63;;;22.80;54.10;;;26.86;36.29;101089.47;5112612;28;20105;-11
2021/09/17 04:55:47;;;;;;;0.73;0.70;;;22.90;54.20;;;26.86;36.45;101093.97;5112431;28;20047;-12
2021/09/17 04:58:13;;;;;;;1.10;0.70;;;22.90;54.20;;;26.86;36.21;101099.34;5112624;28;20058;-11
2021/09/17 05:00:39;;;;;;;0.40;0.40;;;22.90;54.10;;;26.85;36.36;101103.00;5113260;28;20403;-11
2021/09/17 05:03:05;;;;;;;0.75;0.60;;;22.90;54.20;;;26.83;36.25;101108.53;5112558;28;20048;-11
2021/09/17 05:05:31;;;;;;;0.82;0.80;;;22.90;54.10;;;26.84;36.34;101104.00;5112960;28;20106;-11
2021/09/17 05:07:57;;;;;;;0.98;0.68;;;22.90;54.10;;;26.87;36.28;101112.63;5112421;28;20039;-11
2021/09/17 05:10:23;;;;;;;1.00;0.55;;;22.90;54.00;;;26.87;36.40;101107.28;5112346;28;20047;-11
2021/09/17 05:12:49;;;;;;;0.88;0.65;;;22.90;54.00;;;26.88;36.33;101108.13;5112777;28;20054;-11
2021/09/17 05:15:16;;;;;;;0.77;0.60;;;22.90;54.00;;;26.87;36.28;101103.75;5113785;28;20488;-11
2021/09/17 05:17:42;;;;;;;0.70;0.63;;;22.90;54.10;;;26.87;36.36;101104.59;5116139;28;20391;-11
2021/09/17 05:20:09;;;;;;;0.70;0.50;;;22.90;54.10;;;26.86;36.01;101105.56;5095761;28;20143;-11
2021/09/17 05:22:35;;;;;;;0.63;0.52;;;22.90;54.10;;;26.87;36.18;101114.47;5115788;28;20043;-11
2021/09/17 05:25:00;;;;;;;0.68;0.60;;;22.90;54.10;;;26.86;36.28;101108.25;5116086;28;20103;-12
2021/09/17 05:27:27;;;;;;;2.50;0.68;;;22.90;54.10;;;26.83;36.19;101102.28;5115787;28;20050;-11
2021/09/17 05:29:53;;;;;;;0.70;0.70;;;22.90;54.00;;;26.83;36.22;101104.97;5115674;28;20074;-11
2021/09/17 05:32:20;;;;;;;1.02;0.60;;;22.90;54.10;;;26.87;36.22;101117.16;5097694;28;20385;-11
2021/09/17 05:34:47;;;;;;;0.90;0.50;;;22.90;54.00;;;26.86;36.22;101112.75;5115625;28;20122;-11
2021/09/17 05:37:13;;;;;;;0.85;0.50;;;22.90;54.00;;;26.84;36.35;101110.22;5115642;28;20066;-11
2021/09/17 05:39:39;;;;;;;0.93;0.50;;;22.90;54.10;;;26.87;36.22;101117.16;5116076;28;20488;-11
2021/09/17 05:42:05;;;;;;;0.88;0.65;;;22.90;54.00;;;26.84;36.19;101104.00;5115419;28;20055;-11
2021/09/17 05:44:31;;;;;;;0.60;0.60;;;22.90;54.00;;;26.87;36.34;101114.47;5115536;28;20070;-11
2021/09/17 05:46:57;;;;;;;0.60;0.60;;;22.90;54.00;;;26.88;36.26;101114.34;5115541;28;20376;-11
2021/09/17 05:49:22;;;;;;;0.93;0.68;;;22.90;54.00;;;26.88;36.24;101119.72;5115304;28;20055;-11
2021/09/17 05:51:48;;;;;;;0.65;0.60;;;22.90;54.00;;;26.86;36.34;101113.59;5115304;28;20051;-11
2021/09/17 05:54:14;;;;;;;0.75;0.50;;;22.90;53.90;;;26.87;36.18;101114.47;5115427;28;20048;-11
2021/09/17 05:56:40;;;;;;;0.82;0.43;;;22.90;53.80;;;26.87;36.24;101112.63;5115272;28;20073;-11
2021/09/17 05:59:05;;;;;;;0.93;0.63;;;22.90;53.80;;;26.88;36.28;101114.34;5115227;28;20084;-11
2021/09/17 06:01:31;;;;;;;1.20;0.70;;;22.90;53.70;;;26.90;36.37;101111.53;5115285;28;20403;-11
2021/09/17 06:03:57;;;;;;;1.20;0.77;;;23.00;53.70;;;26.88;35.95;101111.66;5115301;28;20052;-11
2021/09/17 06:06:22;;;;;;;0.82;0.50;;;23.00;53.60;;;26.88;36.10;101103.63;5115162;28;20043;-11
2021/09/17 06:08:49;;;;;;;0.57;0.52;;;23.00;53.60;;;26.90;36.12;101112.38;5112694;28;20442;-11
2021/09/17 06:11:17;;;;;;;1.27;0.63;;;23.00;53.50;;;26.91;35.97;101113.22;5115036;28;20047;-11
2021/09/17 06:13:44;;;;;;;1.00;0.65;;;23.00;53.40;;;26.92;36.03;101115.78;5115131;28;20051;-11
2021/09/17 06:16:11;;;;;;;0.50;0.50;;;23.00;53.50;;;26.91;36.03;101114.06;5115349;28;20048;-12
2021/09/17 06:18:37;;;;;;;1.05;0.60;;;23.10;53.40;;;26.95;36.14;101122.75;5114701;28;20138;-11
2021/09/17 06:21:03;;;;;;;0.57;0.57;;;23.10;53.30;;;26.96;36.25;101119.94;5114578;28;20529;-11
2021/09/17 06:23:29;;;;;;;0.63;0.55;;;23.10;53.20;;;26.95;36.02;101112.00;5114562;28;20062;-11
2021/09/17 06:25:58;;;;;;;0.63;0.50;;;23.10;53.20;;;26.97;35.92;101112.72;5114145;28;20138;-11
2021/09/17 06:28:27;;;;;;;0.68;0.50;;;23.10;53.20;;;26.96;36.02;101108.31;5114166;28;20058;-11
2021/09/17 06:30:53;;;;;;;0.43;0.43;;;23.10;53.20;;;26.99;35.97;101116.97;5114439;28;20055;-11
2021/09/17 06:33:18;;;;;;;0.65;0.57;;;23.10;53.10;;;27.02;36.07;101118.56;5115074;28;20043;-11
2021/09/17 06:35:45;;;;;;;0.77;0.50;;;23.10;53.10;;;27.01;35.84;101114.16;5114780;28;20046;-11
2021/09/17 06:38:11;;;;;;;0.50;0.50;;;23.10;53.10;;;27.10;36.02;101120.59;5114892;28;20091;-11
2021/09/17 06:40:37;;;;;;;1.40;0.60;;;23.20;52.80;;;27.16;35.97;101120.06;5114471;28;20059;-11
2021/09/17 06:43:03;;;;;;;1.00;0.70;;;23.40;52.60;;;27.18;35.77;101116.28;5114606;28;20055;-11
2021/09/17 06:45:29;;;;;;;1.95;0.82;;;23.50;52.30;;;27.31;35.96;101123.31;5113158;28;20150;-11
2021/09/17 06:47:58;;;;;;;0.75;0.60;;;23.60;52.10;;;27.38;35.94;101129.03;5114523;28;20046;-11
2021/09/17 06:50:27;;;;;;;0.85;0.50;;;23.80;51.70;;;27.45;35.73;101131.06;5114388;28;20483;-11
2021/09/17 06:52:54;;;;;;;0.55;0.55;;;23.80;51.60;;;27.52;35.54;101139.44;5114544;28;20048;-11
2021/09/17 06:55:28;;;;;;;0.70;0.60;;;23.80;51.60;;;27.56;35.60;101137.34;5114436;28;20040;-11
2021/09/17 06:58:02;;;;;;;0.50;0.50;;;23.90;51.60;;;27.61;35.52;101124.38;5114450;28;20096;-11
2021/09/17 07:00:32;;;;;;;0.68;0.50;;;23.90;51.40;;;27.69;35.55;101129.94;5114116;28;20052;-11
2021/09/17 07:02:58;;;;;;;1.10;0.70;;;23.90;51.30;;;27.71;35.01;101115.34;5114232;28;20043;-11
2021/09/17 07:05:27;;;;;;;0.50;0.50;;;24.00;51.30;;;27.76;35.26;101112.28;5114247;28;20495;-11
2021/09/17 07:08:06;;;;;;;0.77;0.57;;;24.10;51.10;;;27.82;35.31;101118.97;5114458;28;20552;-11
2021/09/17 07:10:35;;;;;;;0.40;0.40;;;24.10;50.80;;;27.86;35.10;101117.69;5113789;28;20083;-11
2021/09/17 07:13:02;;;;;;;0.57;0.55;;;24.20;50.90;;;27.90;34.98;101117.31;5114164;28;20185;-11
2021/09/17 07:15:28;;;;;;;0.55;0.55;;;24.20;50.70;;;28.00;34.99;101130.81;5114112;28;20058;-11
2021/09/17 07:17:55;;;;;;;1.40;0.63;;;24.20;50.70;;;28.02;34.56;101123.47;5114318;28;20055;-11
2021/09/17 07:20:21;;;;;;;0.70;0.70;;;24.20;50.70;;;28.05;34.76;101117.81;5113951;28;20054;-11
2021/09/17 07:22:47;;;;;;;0.60;0.60;;;24.20;50.70;;;28.11;34.88;101129.88;5113879;28;20074;-11
2021/09/17 07:25:13;;;;;;;0.90;0.40;;;24.30;50.70;;;28.12;34.80;101119.94;5113864;28;20079;-11
2021/09/17 07:27:40;;;;;;;1.00;0.60;;;24.20;50.80;;;28.16;34.47;101124.94;5114060;28;20043;-12
2021/09/17 07:30:07;;;;;;;0.70;0.50;;;24.20;50.80;;;28.15;34.43;101125.94;5114074;28;20056;-11
2021/09/17 07:32:33;;;;;;;0.55;0.55;;;24.20;50.90;;;28.17;34.17;101120.41;5095455;28;20071;-11
2021/09/17 07:34:59;;;;;;;0.60;0.50;;;24.20;50.90;;;28.17;34.40;101123.09;5113710;28;20084;-11
2021/09/17 07:37:24;;;;;;;0.57;0.47;;;24.10;51.00;;;28.18;34.48;101122.94;5113646;28;20047;-11
2021/09/17 07:39:51;;;;;;;0.47;0.40;;;24.10;51.00;;;28.17;34.42;101121.25;5113690;28;20108;-11
2021/09/17 07:42:17;;;;;;;0.80;0.52;;;24.10;51.00;;;28.16;34.28;101116.84;5113693;28;20044;-11
2021/09/17 07:44:43;;;;;;;0.95;0.65;;;24.10;51.00;;;28.17;34.37;101126.63;5095273;28;20134;-11
2021/09/17 07:47:09;;;;;;;0.50;0.50;;;24.10;51.00;;;28.18;34.15;101125.63;5094476;28;20630;-11
2021/09/17 07:49:35;;;;;;;1.10;0.57;;;24.10;51.00;;;28.17;34.16;101120.41;5113438;28;20043;-11
2021/09/17 07:52:02;;;;;;;0.90;0.80;;;24.10;51.10;;;28.18;34.00;101128.31;5113394;28;20040;-11
2021/09/17 07:54:28;;;;;;;0.40;0.40;;;24.10;51.00;;;28.17;34.24;101128.50;5113444;28;20050;-11
2021/09/17 07:56:55;;;;;;;1.73;0.68;;;24.10;51.10;;;28.17;34.36;101126.63;5113328;28;20048;-11
2021/09/17 07:59:21;;;;;;;0.60;0.50;;;24.10;51.10;;;28.17;34.44;101126.63;5113633;28;20126;-11
2021/09/17 08:01:47;;;;;;;0.85;0.70;;;24.10;51.10;;;28.17;34.32;101133.88;5113212;28;20063;-11
2021/09/17 08:04:13;;;;;;;1.38;0.70;;;24.10;51.10;;;28.15;34.37;101134.00;5113346;28;20047;-11
2021/09/17 08:06:39;;;;;;;0.50;0.50;;;24.00;51.10;;;28.14;34.08;101137.66;5094797;28;20396;-12
2021/09/17 08:09:06;;;;;;;0.50;0.50;;;24.00;51.20;;;28.15;34.04;101133.13;5093775;28;20078;-11
2021/09/17 08:11:33;;;;;;;0.50;0.50;;;24.00;51.30;;;28.14;34.02;101137.66;5113210;28;20047;-11
2021/09/17 08:13:59;;;;;;;0.68;0.50;;;23.90;51.20;;;28.11;34.25;101131.72;5113248;28;20532;-11
2021/09/17 08:16:25;;;;;;;0.75;0.60;;;23.90;51.30;;;28.11;33.96;101146.00;5113425;28;20051;-11
2021/09/17 08:18:52;;;;;;;0.40;0.40;;;23.90;51.20;;;28.09;34.37;101138.06;5113426;28;20439;-11
2021/09/17 08:21:19;;;;;;;0.60;0.60;;;23.90;51.30;;;28.09;33.96;101145.28;5113162;28;20098;-11
2021/09/17 08:23:46;;;;;;;0.40;0.40;;;23.90;51.30;;;28.06;33.96;101149.06;5113020;28;20044;-12
2021/09/17 08:26:13;;;;;;;0.80;0.60;;;23.90;51.40;;;28.06;34.18;101145.53;5113089;28;20120;-11
2021/09/17 08:28:39;;;;;;;0.55;0.47;;;23.90;51.40;;;28.04;33.92;101145.69;5112935;28;20082;-11
2021/09/17 08:31:08;;;;;;;1.33;0.50;;;23.80;51.50;;;28.04;34.15;101153.75;5112819;28;20391;-11
2021/09/17 08:33:34;;;;;;;0.57;0.57;;;23.80;51.50;;;28.02;34.14;101166.47;5113411;28;20498;-11
2021/09/17 08:36:00;;;;;;;0.85;0.50;;;23.80;51.50;;;28.00;34.21;101149.63;5113327;28;20066;-11
2021/09/17 08:38:26;;;;;;;1.00;0.60;;;23.80;51.50;;;28.01;34.20;101158.53;5112740;28;20059;-11
2021/09/17 08:40:58;;;;;;;0.88;0.50;;;23.80;51.50;;;27.95;34.14;101148.31;5112773;28;20055;-11
2021/09/17 08:43:26;;;;;;;0.85;0.50;;;23.80;51.60;;;27.95;34.30;101153.69;5113119;28;20051;-11
2021/09/17 08:45:53;;;;;;;0.50;0.50;;;23.70;51.70;;;27.94;34.15;101160.06;5112902;28;20052;-11
2021/09/17 08:48:29;;;;;;;0.52;0.50;;;23.70;51.80;;;27.96;34.25;101152.72;5094301;28;20188;-11
2021/09/17 08:50:57;;;;;;;0.55;0.47;;;23.70;51.90;;;27.89;34.09;101157.75;5115062;28;20134;-11
2021/09/17 08:53:25;;;;;;;0.50;0.50;;;23.70;51.90;;;27.87;34.47;101165.09;5116278;28;20054;-11
2021/09/17 08:55:52;;;;;;;0.50;0.40;;;23.70;51.90;;;27.87;34.12;101167.78;5115699;28;20051;-11
2021/09/17 08:58:18;;;;;;;1.55;0.60;;;23.70;51.80;;;27.86;34.53;101160.69;5116182;28;20059;-11
2021/09/17 09:00:44;;;;;;;0.88;0.60;;;23.70;51.70;;;27.83;34.26;101166.34;5116391;28;20143;-11
2021/09/17 09:03:28;;;;;;;0.32;0.32;;;23.70;51.70;;;27.81;34.35;101158.41;5116162;28;20503;-11
2021/09/17 09:05:54;;;;;;;0.47;0.47;;;23.80;51.70;;;27.82;34.20;101162.81;5096519;28;20582;-11
2021/09/17 09:08:26;;;;;;;0.68;0.50;;;23.70;51.60;;;27.82;34.57;101167.34;5115949;28;20139;-11
2021/09/17 09:10:53;;;;;;;0.40;0.40;;;23.70;51.60;;;27.83;34.10;101160.97;5116148;28;20043;-11
2021/09/17 09:13:19;;;;;;;0.80;0.47;;;23.80;51.60;;;27.84;34.54;101168.88;5116218;28;20055;-11
2021/09/17 09:15:44;;;;;;;0.40;0.40;;;23.80;51.40;;;27.85;34.12;101169.72;5116141;28;20063;-11
2021/09/17 09:18:14;;;;;;;0.40;0.40;;;23.90;51.20;;;27.85;34.27;101175.09;5116256;28;20047;-11
2021/09/17 09:20:43;;;;;;;0.57;0.57;;;23.90;51.30;;;27.85;34.42;101178.66;5115782;28;20100;-11
2021/09/17 09:23:26;;;;;;;0.40;0.40;;;23.80;51.30;;;27.83;34.51;101167.22;5115898;28;20369;-11
2021/09/17 09:26:02;;;;;;;0.40;0.40;;;23.80;51.40;;;27.85;34.43;101156.28;5112051;28;20040;-11
2021/09/17 09:28:43;;;;;;;0.50;0.50;;;23.80;51.40;;;27.84;34.18;101168.03;5113486;28;20476;-12
2021/09/17 09:31:14;;;;;;;0.65;0.40;;;23.80;51.30;;;27.85;34.44;101169.72;5096736;28;20046;-11
2021/09/17 09:33:48;;;;;;;0.40;0.40;;;23.90;51.30;;;27.84;34.37;101166.19;5114890;28;20089;-11
2021/09/17 09:36:20;;;;;;;0.50;0.50;;;23.90;51.30;;;27.82;34.38;101159.28;5097413;28;20422;-11
2021/09/17 09:38:53;;;;;;;0.50;0.50;;;23.90;51.30;;;27.83;34.54;101164.53;5115314;28;20047;-12
2021/09/17 09:41:25;;;;;;;0.40;0.40;;;23.90;51.20;;;27.85;34.22;101165.22;5115887;28;20043;-11
2021/09/17 09:44:04;;;;;;;0.45;0.45;;;23.90;51.10;;;27.84;34.30;101168.03;5115555;28;20043;-11
2021/09/17 09:46:41;;;;;;;0.40;0.40;;;23.90;51.00;;;27.80;34.35;101162.09;5115933;28;20047;-11
2021/09/17 09:49:12;;;;;;;0.40;0.40;;;23.90;51.10;;;27.82;34.28;101170.88;5115107;28;20466;-11
2021/09/17 09:52:06;;;;;;;0.40;0.40;;;23.90;51.10;;;27.80;34.06;101159.41;5115399;28;20449;-11
2021/09/17 09:54:33;;;;;;;0.70;0.50;;;23.90;51.10;;;27.82;34.24;101167.34;5115379;28;20039;-11
2021/09/17 09:57:02;;;;;;;0.57;0.50;;;23.90;51.00;;;27.77;34.25;101161.50;5115720;28;20044;-11
2021/09/17 09:59:34;;;;;;;0.40;0.40;;;23.90;51.10;;;27.77;34.38;101164.19;5115004;28;20109;-11
2021/09/17 10:02:04;;;;;;;0.30;0.30;;;23.90;51.10;;;27.77;34.21;101156.97;5114616;28;20051;-11
2021/09/17 10:04:32;;;;;;;0.40;0.40;;;23.80;51.10;;;27.78;34.43;101165.88;5115296;28;20079;-11
2021/09/17 10:07:06;;;;;;;0.50;0.50;;;23.90;51.10;;;27.79;34.34;101165.75;5115289;28;20289;-12
2021/09/17 10:09:37;;;;;;;0.47;0.43;;;23.90;51.10;;;27.76;34.14;101157.94;5115106;28;20059;-11
2021/09/17 10:12:05;;;;;;;0.63;0.40;;;23.90;51.10;;;27.78;34.16;101160.50;5096743;28;20157;-11